This is the latest recevied weather packets stored in our database for station/object N8SHA. If no packets are shown the sender has not sent any weather packets the latest 1 day(s).
| Time | Temp. | Humidity | Pressure | Rain* | Wind** | Luminosity | Snow |
|---|---|---|---|---|---|---|---|
| 1778269615 | 17.78° C | 35% | 1008.4 hPa | 0 mm | - | 686 W/m² | - |
| 1778269312 | 17.78° C | 36% | 1008.6 hPa | 0 mm | - | 588 W/m² | - |
| 1778268100 | 17.78° C | 31% | 1008.9 hPa | 0 mm | - | 466 W/m² | - |
| 1778267493 | 17.78° C | 36% | 1009 hPa | 0 mm | - | 569 W/m² | - |
| 1778266887 | 17.22° C | 32% | 1009 hPa | 0 mm | - | 570 W/m² | - |
| 1778266584 | 17.22° C | 35% | 1008.9 hPa | 0 mm | - | 540 W/m² | - |
| 1778266281 | 16.67° C | 35% | 1009 hPa | 0 mm | - | 588 W/m² | - |
| 1778265979 | 17.22° C | 34% | 1009 hPa | 0 mm | - | 515 W/m² | - |
| 1778265372 | 17.22° C | 31% | 1009.4 hPa | 0 mm | - | 541 W/m² | - |
| 1778263849 | 16.67° C | 32% | 1009.4 hPa | 0 mm | - | 472 W/m² | - |
| 1778263545 | 16.67° C | 35% | 1009.8 hPa | 0 mm | - | 526 W/m² | - |
| 1778260816 | 16.67° C | 40% | 1010.5 hPa | 0 mm | - | 800 W/m² | - |
| 1778259604 | 16.11° C | 40% | 1010.7 hPa | 0 mm | - | 842 W/m² | - |
| 1778258694 | 16.11° C | 37% | 1010.8 hPa | 0 mm | - | 831 W/m² | - |
| 1778257784 | 15.56° C | 39% | 1011 hPa | 0 mm | - | 823 W/m² | - |
| 1778256876 | 15° C | 36% | 1011.2 hPa | 0 mm | - | 824 W/m² | - |
| 1778256573 | 15° C | 38% | 1011.2 hPa | 0 mm | - | 806 W/m² | - |
| 1778256272 | 15.56° C | 39% | 1011.2 hPa | 0 mm | - | 793 W/m² | - |
| 1778255665 | 15.56° C | 42% | 1011.3 hPa | 0 mm | - | 787 W/m² | - |
| 1778254453 | 15° C | 39% | 1011.4 hPa | 0 mm | - | 752 W/m² | - |
| 1778254149 | 14.44° C | 39% | 1011.5 hPa | 0 mm | - | 738 W/m² | - |
| 1778253239 | 14.44° C | 44% | 1011.3 hPa | 0 mm | - | 717 W/m² | - |
| 1778252935 | 14.44° C | 44% | 1011.5 hPa | 0 mm | - | 699 W/m² | - |
| 1778252632 | 13.89° C | 40% | 1011.6 hPa | 0 mm | - | 694 W/m² | - |
| 1778249298 | 10.56° C | 52% | 1011.7 hPa | 0 mm | - | 68 W/m² | - |
* Rain latest hour (hover to see other rain measurements)
** Current wind speed in m/s (hover to see current wind gust speed)